Latest Weather Observations for Ulladulla

IDN60901

Issued at 11:31 pm EST Saturday 4 July 2015 (issued every 10 minutes, with the page automatically refreshed every 10 minutes)

About weather observations | Map of Canberra area stations | Latest observations for Canberra area | Other Formats
Station Details ID: 069138 Name: ULLADULLA AWS Lat: -35.36 Lon: 150.48 Height: 35.7 m
Data from the previous 72 hours. | See also: Recent months at Ulladulla
Date/Time
EST
Tmp

°C
App
Tmp
°C
Dew
Point
°C
Rel
Hum
%
Delta-T

°C
Wind Press
QNH
hPa
Press
MSL
hPa
Rain
since
9 am
mm
Dir
 
Spd
km/h
Gust
km/h
Spd
kts
Gust
kts
04/11:30pm 9.6 6.7 2.5 61 3.0 WNW 7 9 4 5 1020.6 1020.6 0.0
04/11:00pm 9.6 6.6 2.2 60 3.1 WNW 7 13 4 7 1020.6 1020.6 0.0
04/10:30pm 9.7 6.8 2.6 61 3.0 WNW 7 11 4 6 1020.6 1020.6 0.0
04/10:00pm 9.7 6.8 2.6 61 3.0 WNW 7 11 4 6 1020.8 1020.8 0.0
04/09:30pm 9.5 6.6 2.4 61 3.0 WNW 7 11 4 6 1020.8 1020.8 0.0
04/09:00pm 9.9 7.0 2.5 60 3.1 WNW 7 13 4 7 1020.8 1020.8 0.0
04/08:30pm 9.5 6.2 2.6 62 2.9 NW 9 13 5 7 1020.8 1020.8 0.0
04/08:00pm 9.0 6.2 3.0 66 2.6 NW 7 9 4 5 1020.8 1020.8 0.0
04/07:30pm 9.1 6.3 3.3 67 2.5 NW 7 9 4 5 1020.9 1020.9 0.0
04/07:00pm 8.7 6.1 4.3 74 1.9 NNW 7 9 4 5 1020.8 1020.8 0.0
04/06:30pm 8.5 6.1 4.1 74 1.9 NNW 6 6 3 3 1020.7 1020.7 0.0
04/06:00pm 10.0 8.0 4.2 67 2.6 NW 4 6 2 3 1020.6 1020.6 0.0
04/05:30pm 10.5 8.6 4.9 68 2.5 NW 4 6 2 3 1020.3 1020.3 0.0
04/05:00pm 10.7 9.3 3.7 62 3.1 CALM 0 0 0 0 1020.1 1020.1 0.0
04/04:30pm 12.9 11.5 3.8 54 4.1 CALM 0 0 0 0 1020.1 1020.1 0.0
04/04:00pm 13.8 12.0 3.3 49 4.7 WNW 2 6 1 3 1020.2 1020.2 0.0
04/03:30pm 14.1 11.5 3.0 47 5.0 W 6 9 3 5 1020.0 1020.0 0.0
04/03:00pm 14.4 11.7 2.6 45 5.2 WSW 6 11 3 6 1020.0 1020.0 0.0
04/02:30pm 14.5 11.1 2.1 43 5.5 WSW 9 13 5 7 1019.9 1019.9 0.0
04/02:00pm 14.6 12.0 3.1 46 5.2 W 6 13 3 7 1020.0 1020.0 0.0
04/01:30pm 13.6 10.2 1.9 45 5.1 WNW 9 17 5 9 1020.1 1020.1 0.0
04/01:00pm 12.2 9.3 2.4 51 4.2 W 7 13 4 7 1020.4 1020.4 0.0
04/12:30pm 11.8 8.8 2.3 52 4.1 W 7 15 4 8 1020.8 1020.8 0.0
04/12:00pm 11.9 8.4 1.3 48 4.5 W 9 15 5 8 1020.7 1020.7 0.0
04/11:30am 11.8 8.3 1.2 48 4.5 W 9 17 5 9 1021.7 1021.8 0.0
04/10:30am 10.3 7.2 1.4 54 3.7 W 7 15 4 8 1022.0 1022.1 0.0
04/10:00am 10.7 7.2 1.0 51 4.0 W 9 15 5 8 1022.0 1022.1 0.0
04/09:30am 10.1 6.5 0.7 52 3.8 W 9 15 5 8 1022.0 1022.1 0.0
04/08:30am 7.3 4.0 0.1 60 2.8 W 7 11 4 6 1022.0 1022.1 0.0
04/08:00am 7.3 4.0 -0.2 59 2.9 WNW 7 13 4 7 1021.7 1021.8 0.0
04/07:30am 6.2 2.8 -0.5 62 2.6 W 7 13 4 7 1021.6 1021.7 0.0
04/07:00am 6.5 3.2 -1.2 58 2.9 WNW 6 11 3 6 1021.5 1021.6 0.0
04/06:30am 6.7 2.5 -1.0 58 2.9 W 11 19 6 10 1021.3 1021.4 0.0
04/06:00am 6.5 2.3 -1.2 58 2.9 W 11 22 6 12 1021.1 1021.1 0.0
04/05:30am 6.5 2.2 -1.6 56 3.0 WNW 11 22 6 12 1020.8 1020.8 0.0
04/05:00am 5.5 1.3 -1.2 62 2.5 NNW 11 17 6 9 1020.5 1020.5 0.0
04/04:30am 6.4 2.9 -1.5 57 2.9 NW 7 11 4 6 1020.8 1020.8 0.0
04/04:00am 5.8 2.4 -2.0 57 2.8 WNW 6 7 3 4 1021.0 1021.0 0.0
04/03:30am 6.0 2.6 -2.1 56 3.0 WNW 6 9 3 5 1021.5 1021.6 0.0
04/03:00am 6.9 3.0 -1.7 54 3.2 WNW 9 13 5 7 1021.7 1021.8 0.0
04/02:30am 6.2 3.0 -0.7 61 2.6 WNW 6 9 3 5 1022.3 1022.4 0.0
04/02:00am 6.7 3.0 -0.1 62 2.6 NW 9 15 5 8 1022.7 1022.8 0.0
04/01:30am 5.7 2.6 0.1 67 2.2 NW 6 7 3 4 1022.7 1022.8 0.0
04/01:00am 6.3 3.5 -0.4 62 2.5 NW 4 7 2 4 1023.0 1023.1 0.0
04/12:30am 7.4 4.2 0.6 62 2.7 WNW 7 11 4 6 1023.6 1023.7 0.0
04/12:00am 7.1 3.9 1.0 65 2.4 NW 7 11 4 6 1023.9 1024.0 0.0
 
Date/Time
EST
Tmp

°C
App
Tmp
°C
Dew
Point
°C
Rel
Hum
%
Delta-T

°C
Wind Press
QNH
hPa
Press
MSL
hPa
Rain
since
9 am
mm
Dir
 
Spd
km/h
Gust
km/h
Spd
kts
Gust
kts
03/11:30pm 7.4 4.2 0.8 63 2.6 WNW 7 11 4 6 1024.3 1024.4 0.0
03/11:00pm 7.1 4.1 0.5 63 2.6 WNW 6 9 3 5 1024.4 1024.5 0.0
03/10:30pm 6.8 3.8 1.1 67 2.3 WNW 6 7 3 4 1024.6 1024.7 0.0
03/10:00pm 6.9 3.9 1.0 66 2.3 W 6 7 3 4 1024.8 1024.9 0.0
03/09:30pm 7.7 4.8 1.3 64 2.6 NW 6 7 3 4 1025.0 1025.1 0.0
03/09:00pm 8.2 5.2 1.8 64 2.6 NW 7 9 4 5 1025.0 1025.1 0.0
03/08:30pm 8.2 4.8 2.0 65 2.6 NW 9 11 5 6 1025.1 1025.2 0.0
03/08:00pm 8.5 5.5 2.3 65 2.6 NW 7 11 4 6 1025.2 1025.3 0.0
03/07:30pm 8.5 5.6 2.7 67 2.4 NW 7 9 4 5 1025.1 1025.2 0.0
03/07:00pm 8.7 5.5 2.9 67 2.5 NW 9 11 5 6 1025.2 1025.3 0.0
03/06:30pm 8.8 6.0 3.2 68 2.4 NW 7 9 4 5 1025.2 1025.3 0.0
03/06:00pm 8.2 5.4 2.2 66 2.5 NW 6 6 3 3 1025.1 1025.2 0.0
03/05:30pm 8.7 6.7 2.5 65 2.6 ENE 2 4 1 2 1025.0 1025.1 0.0
03/05:00pm 9.6 7.9 2.0 59 3.2 CALM 0 0 0 0 1024.8 1024.9 0.0
03/04:30pm 11.2 8.9 2.8 56 3.6 E 4 7 2 4 1024.8 1024.9 0.0
03/04:00pm 12.1 10.2 3.1 54 3.9 ESE 2 6 1 3 1024.8 1024.9 0.0
03/03:30pm 11.9 8.9 2.1 51 4.2 S 7 13 4 7 1024.7 1024.8 0.0
03/03:00pm 12.3 9.5 2.2 50 4.3 SE 6 9 3 5 1024.7 1024.8 0.0
03/02:30pm 12.3 9.5 1.9 49 4.5 SSE 6 9 3 5 1024.7 1024.8 0.0
03/02:00pm 12.4 9.1 2.6 51 4.3 S 9 13 5 7 1025.0 1025.1 0.0
03/01:30pm 12.4 9.4 2.3 50 4.4 S 7 11 4 6 1025.4 1025.5 0.0
03/01:00pm 12.1 8.2 1.4 48 4.5 S 11 19 6 10 1026.0 1026.0 0.0
03/12:30pm 12.4 8.4 2.6 51 4.3 S 13 20 7 11 1026.4 1026.4 0.0
03/12:00pm 12.0 7.9 2.2 51 4.2 SSW 13 20 7 11 1026.8 1026.8 0.0
03/11:30am 12.1 8.0 2.3 51 4.2 SSW 13 20 7 11 1027.1 1027.1 0.0
03/11:00am 11.9 7.6 1.3 48 4.4 SSW 13 24 7 13 1027.4 1027.4 0.0
03/10:30am 11.5 7.4 0.0 45 4.7 SW 11 17 6 9 1027.6 1027.6 0.0
03/10:00am 11.2 7.5 0.0 46 4.5 SW 9 15 5 8 1027.7 1027.7 0.0
03/09:30am 10.9 7.7 -0.2 46 4.5 WSW 6 9 3 5 1027.6 1027.6 0.0
03/09:00am 10.1 7.0 0.2 50 4.0 WSW 6 9 3 5 1027.4 1027.4 0.2
03/08:30am 8.3 5.2 0.3 57 3.2 WSW 6 9 3 5 1027.1 1027.1 0.2
03/08:00am 5.8 2.4 -0.5 64 2.4 W 7 9 4 5 1026.8 1026.8 0.2
03/07:30am 5.6 2.2 -0.7 64 2.4 W 7 11 4 6 1026.4 1026.4 0.2
03/07:00am 5.2 1.7 -1.0 64 2.3 W 7 11 4 6 1026.0 1026.0 0.2
03/06:30am 5.2 1.7 -1.0 64 2.3 WSW 7 11 4 6 1025.5 1025.6 0.2
03/06:00am 6.1 2.6 -1.5 58 2.8 WSW 7 9 4 5 1025.3 1025.4 0.2
03/05:30am 7.3 3.4 -1.6 53 3.3 SW 9 19 5 10 1024.9 1025.0 0.2
03/05:00am 7.1 2.9 -1.1 56 3.1 WSW 11 17 6 9 1024.7 1024.8 0.2
03/04:30am 7.2 2.9 -1.5 54 3.3 WSW 11 19 6 10 1024.5 1024.6 0.2
03/04:00am 7.5 2.4 -1.7 52 3.4 WSW 15 20 8 11 1024.2 1024.3 0.2
03/03:30am 7.4 3.1 -1.5 53 3.4 WSW 11 20 6 11 1024.0 1024.1 0.2
03/03:00am 7.5 2.5 -1.2 54 3.3 WSW 15 22 8 12 1024.0 1024.1 0.2
03/02:30am 7.2 2.5 -1.5 54 3.3 WSW 13 22 7 12 1024.0 1024.1 0.2
03/02:00am 7.0 2.7 -1.4 55 3.1 WSW 11 20 6 11 1024.1 1024.2 0.2
03/01:30am 6.7 2.4 -1.7 55 3.1 WSW 11 17 6 9 1024.2 1024.3 0.2
03/01:00am 6.9 3.0 -1.5 55 3.1 WSW 9 15 5 8 1024.1 1024.2 0.2
03/12:30am 6.9 2.3 -1.3 56 3.1 WSW 13 17 7 9 1024.3 1024.4 0.2
03/12:00am 6.4 2.2 -0.8 60 2.7 WSW 11 20 6 11 1024.5 1024.6 0.2
 
Date/Time
EST
Tmp

°C
App
Tmp
°C
Dew
Point
°C
Rel
Hum
%
Delta-T

°C
Wind Press
QNH
hPa
Press
MSL
hPa
Rain
since
9 am
mm
Dir
 
Spd
km/h
Gust
km/h
Spd
kts
Gust
kts
02/11:30pm 6.6 2.8 -0.6 60 2.8 W 9 17 5 9 1024.8 1024.9 0.2
02/11:00pm 6.7 3.3 -0.5 60 2.7 W 7 13 4 7 1024.6 1024.7 0.2
02/10:30pm 6.8 2.6 -0.6 59 2.8 WSW 11 17 6 9 1024.4 1024.5 0.2
02/10:00pm 6.7 3.0 -0.3 61 2.7 WSW 9 15 5 8 1023.9 1024.0 0.2
02/09:30pm 6.5 2.8 -0.2 62 2.6 WSW 9 13 5 7 1023.6 1023.7 0.2
02/09:00pm 7.6 3.2 0.1 59 2.9 WSW 13 19 7 10 1023.5 1023.6 0.2
02/08:30pm 6.3 2.7 0.6 67 2.2 WSW 9 13 5 7 1023.2 1023.3 0.2
02/08:00pm 6.0 2.8 0.8 69 2.0 W 7 9 4 5 1022.9 1023.0 0.2
02/07:30pm 6.3 3.1 1.0 69 2.1 W 7 9 4 5 1022.7 1022.8 0.2
02/07:00pm 6.9 3.8 1.4 68 2.2 WSW 7 11 4 6 1022.0 1022.1 0.2
02/06:30pm 7.3 4.3 1.8 68 2.2 W 7 9 4 5 1021.4 1021.5 0.2
02/06:00pm 8.6 4.6 3.0 68 2.4 WSW 13 19 7 10 1020.3 1020.3 0.2
02/05:30pm 9.3 6.6 5.5 77 1.7 SW 9 17 5 9 1019.5 1019.5 0.2
02/05:00pm 9.5 5.7 6.0 79 1.6 SSW 15 22 8 12 1019.0 1019.0 0.2
02/04:34pm 10.8 4.6 8.0 83 1.4 SSW 30 69 16 37 1018.5 1018.5 0.2
02/04:30pm 10.6 2.6 7.3 80 1.6 SSW 39 72 21 39 1018.3 1018.3 0.2
02/04:25pm 11.1 0.4 6.6 74 2.1 S 52 85 28 46 1017.6 1017.6 0.0
02/04:24pm 10.9 0.1 5.9 71 2.3 S 52 85 28 46 1017.6 1017.6 0.0
02/04:11pm 11.2 2.1 6.1 71 2.4 SSW 43 83 23 45 1017.1 1017.1 0.0
02/04:05pm 12.8 7.5 4.8 58 3.7 WSW 22 63 12 34 1017.5 1017.5 0.0
02/04:00pm 13.3 8.4 4.2 54 4.1 W 19 37 10 20 1016.2 1016.2 0.0
02/03:30pm 13.4 8.9 4.0 53 4.3 W 17 33 9 18 1015.8 1015.8 0.0
02/03:00pm 13.8 8.7 3.9 51 4.5 WNW 20 41 11 22 1015.3 1015.3 0.0
02/02:30pm 14.1 8.6 4.1 51 4.6 NW 22 43 12 23 1015.3 1015.3 0.0
02/02:00pm 14.1 8.7 4.4 52 4.5 NW 22 37 12 20 1015.2 1015.2 0.0
02/01:30pm 14.9 9.9 3.7 47 5.1 W 19 37 10 20 1015.8 1015.8 0.0
02/01:00pm 16.3 11.8 4.4 45 5.6 NW 17 26 9 14 1015.6 1015.6 0.0
02/12:30pm 15.9 12.0 3.4 43 5.7 W 13 28 7 15 1016.0 1016.0 0.0
02/12:00pm 16.4 13.0 4.1 44 5.7 W 11 24 6 13 1016.4 1016.4 0.0
02/11:30am 16.1 11.2 3.9 44 5.7 WNW 19 35 10 19 1016.5 1016.5 0.0
02/11:00am 15.6 11.0 3.7 45 5.5 WNW 17 32 9 17 1016.9 1016.9 0.0
02/10:30am 14.8 9.6 3.3 46 5.2 WNW 20 35 11 19 1016.9 1016.9 0.0
02/10:00am 13.8 8.6 2.7 47 4.9 NW 19 32 10 17 1017.3 1017.3 0.0
02/09:30am 12.9 9.0 3.3 52 4.3 NW 13 20 7 11 1017.4 1017.4 0.0
02/09:00am 11.3 6.8 2.3 54 3.9 NW 15 28 8 15 1017.6 1017.6 0.0
02/08:30am 10.8 6.6 1.9 54 3.8 WNW 13 24 7 13 1017.8 1017.8 0.0
02/08:00am 10.0 5.0 1.1 54 3.7 WNW 17 28 9 15 1017.8 1017.8 0.0
02/07:30am 9.8 4.7 0.9 54 3.6 WNW 17 30 9 16 1017.9 1017.9 0.0
02/07:00am 9.2 4.1 0.6 55 3.5 WNW 17 32 9 17 1018.1 1018.1 0.0
02/06:30am 9.2 4.4 0.1 53 3.6 WNW 15 30 8 16 1018.2 1018.2 0.0
02/06:00am 9.2 4.4 -0.1 52 3.7 WNW 15 28 8 15 1018.1 1018.1 0.0
02/05:30am 8.9 4.2 0.6 56 3.3 WNW 15 28 8 15 1017.9 1017.9 0.0
02/05:00am 8.9 4.2 0.9 57 3.2 NW 15 24 8 13 1018.1 1018.1 0.0
02/04:30am 8.5 4.6 1.0 59 3.0 NW 11 19 6 10 1018.3 1018.3 0.0
02/04:00am 8.4 4.5 1.1 60 3.0 WNW 11 20 6 11 1018.7 1018.7 0.0
02/03:30am 8.7 4.4 1.1 59 3.1 WNW 13 22 7 12 1019.0 1019.0 0.0
02/03:00am 8.2 4.0 1.4 62 2.8 WNW 13 20 7 11 1019.4 1019.4 0.0
02/02:30am 8.4 4.1 1.3 61 2.9 WNW 13 22 7 12 1019.6 1019.6 0.0
02/02:00am 8.3 4.5 1.5 62 2.8 WNW 11 19 6 10 1019.6 1019.6 0.0
02/01:30am 8.4 3.8 1.8 63 2.7 WNW 15 24 8 13 1019.9 1019.9 0.0
02/01:00am 8.5 4.3 1.9 63 2.7 W 13 24 7 13 1020.1 1020.1 0.0
02/12:30am 8.5 4.0 1.9 63 2.7 W 15 28 8 15 1020.4 1020.4 0.0
02/12:00am 8.7 4.6 2.1 63 2.7 W 13 24 7 13 1020.3 1020.3 0.0

Latest Capital City Observations: Canberra | Sydney | Melbourne | Brisbane | Adelaide | Perth | Hobart | Darwin

Other Formats:

Comma delimited format used in spreadsheet applications
http://www.bom.gov.au/fwo/IDN60903/IDN60903.94938.axf

JavaScript Object Notation format (JSON) in row-major order
http://www.bom.gov.au/fwo/IDN60903/IDN60903.94938.json